sensor_id;sensor_type;location;lat;lon;timestamp;pressure;altitude;pressure_sealevel;temperature;humidity
71768;BME280;59604;52.138;5.446;2022-08-19T00:01:52;101540.31;;;18.13;82.46
71768;BME280;59604;52.138;5.446;2022-08-19T00:04:23;101533.34;;;18.12;82.49
71768;BME280;59604;52.138;5.446;2022-08-19T00:06:51;101538.69;;;18.12;82.41
71768;BME280;59604;52.138;5.446;2022-08-19T00:09:19;101537.88;;;18.12;82.65
71768;BME280;59604;52.138;5.446;2022-08-19T00:11:46;101542.59;;;18.09;82.60
71768;BME280;59604;52.138;5.446;2022-08-19T00:14:14;101546.31;;;18.08;82.53
71768;BME280;59604;52.138;5.446;2022-08-19T00:16:43;101551.09;;;18.00;82.91
71768;BME280;59604;52.138;5.446;2022-08-19T00:19:11;101557.47;;;17.99;82.84
71768;BME280;59604;52.138;5.446;2022-08-19T00:21:38;101549.22;;;18.00;82.83
71768;BME280;59604;52.138;5.446;2022-08-19T00:24:10;101548.84;;;17.97;83.02
71768;BME280;59604;52.138;5.446;2022-08-19T00:26:38;101545.00;;;17.93;83.18
71768;BME280;59604;52.138;5.446;2022-08-19T00:29:06;101543.72;;;17.77;83.75
71768;BME280;59604;52.138;5.446;2022-08-19T00:31:33;101539.06;;;17.66;84.14
71768;BME280;59604;52.138;5.446;2022-08-19T00:34:00;101541.00;;;17.52;84.43
71768;BME280;59604;52.138;5.446;2022-08-19T00:36:26;101542.47;;;17.48;84.47
71768;BME280;59604;52.138;5.446;2022-08-19T00:38:55;101540.69;;;17.42;84.70
71768;BME280;59604;52.138;5.446;2022-08-19T00:41:23;101544.75;;;17.44;84.56
71768;BME280;59604;52.138;5.446;2022-08-19T00:44:12;101535.72;;;17.45;84.13
71768;BME280;59604;52.138;5.446;2022-08-19T00:46:42;101538.84;;;17.42;84.22
71768;BME280;59604;52.138;5.446;2022-08-19T00:52:02;101534.66;;;17.53;83.47
71768;BME280;59604;52.138;5.446;2022-08-19T00:54:29;101527.88;;;17.57;83.07
71768;BME280;59604;52.138;5.446;2022-08-19T00:56:59;101538.53;;;17.57;83.37
71768;BME280;59604;52.138;5.446;2022-08-19T00:59:27;101530.16;;;17.53;83.12
71768;BME280;59604;52.138;5.446;2022-08-19T01:02:15;101533.81;;;17.52;83.39
71768;BME280;59604;52.138;5.446;2022-08-19T01:04:42;101531.38;;;17.51;83.31
71768;BME280;59604;52.138;5.446;2022-08-19T01:07:09;101533.44;;;17.49;83.47
71768;BME280;59604;52.138;5.446;2022-08-19T01:09:40;101543.28;;;17.48;83.38
71768;BME280;59604;52.138;5.446;2022-08-19T01:12:07;101537.00;;;17.43;83.73
71768;BME280;59604;52.138;5.446;2022-08-19T01:14:36;101529.28;;;17.34;84.16
71768;BME280;59604;52.138;5.446;2022-08-19T01:17:07;101539.53;;;17.31;84.67
71768;BME280;59604;52.138;5.446;2022-08-19T01:19:39;101531.75;;;17.29;84.83
71768;BME280;59604;52.138;5.446;2022-08-19T01:22:19;101531.16;;;17.27;84.61
71768;BME280;59604;52.138;5.446;2022-08-19T01:24:55;101536.53;;;17.21;84.62
71768;BME280;59604;52.138;5.446;2022-08-19T01:27:22;101541.44;;;17.24;84.70
71768;BME280;59604;52.138;5.446;2022-08-19T01:29:50;101543.63;;;17.27;84.54
71768;BME280;59604;52.138;5.446;2022-08-19T01:32:17;101537.94;;;17.23;84.58
71768;BME280;59604;52.138;5.446;2022-08-19T01:35:00;101546.78;;;17.17;85.01
71768;BME280;59604;52.138;5.446;2022-08-19T01:37:27;101537.22;;;17.09;85.04
71768;BME280;59604;52.138;5.446;2022-08-19T01:39:55;101547.09;;;16.96;85.44
71768;BME280;59604;52.138;5.446;2022-08-19T01:42:21;101544.88;;;16.86;85.75
71768;BME280;59604;52.138;5.446;2022-08-19T01:44:55;101539.38;;;16.87;85.36
71768;BME280;59604;52.138;5.446;2022-08-19T01:47:22;101539.56;;;16.86;85.10
71768;BME280;59604;52.138;5.446;2022-08-19T01:49:48;101535.09;;;16.86;85.18
71768;BME280;59604;52.138;5.446;2022-08-19T01:52:15;101534.03;;;16.87;85.20
71768;BME280;59604;52.138;5.446;2022-08-19T01:54:42;101537.75;;;16.86;85.19
71768;BME280;59604;52.138;5.446;2022-08-19T01:57:10;101547.75;;;16.91;85.02
71768;BME280;59604;52.138;5.446;2022-08-19T01:59:39;101542.19;;;16.93;84.72
71768;BME280;59604;52.138;5.446;2022-08-19T02:02:06;101548.34;;;16.93;84.73
71768;BME280;59604;52.138;5.446;2022-08-19T02:04:35;101548.38;;;16.86;84.41
71768;BME280;59604;52.138;5.446;2022-08-19T02:07:01;101541.44;;;16.79;84.87
71768;BME280;59604;52.138;5.446;2022-08-19T02:09:28;101547.19;;;16.69;85.37
71768;BME280;59604;52.138;5.446;2022-08-19T02:11:54;101543.13;;;16.60;85.65
71768;BME280;59604;52.138;5.446;2022-08-19T02:14:21;101546.63;;;16.54;85.84
71768;BME280;59604;52.138;5.446;2022-08-19T02:16:47;101549.31;;;16.54;85.97
71768;BME280;59604;52.138;5.446;2022-08-19T02:19:14;101548.28;;;16.48;85.76
71768;BME280;59604;52.138;5.446;2022-08-19T02:21:40;101548.91;;;16.43;85.94
71768;BME280;59604;52.138;5.446;2022-08-19T02:24:07;101539.31;;;16.36;85.91
71768;BME280;59604;52.138;5.446;2022-08-19T02:26:33;101539.13;;;16.31;85.70
71768;BME280;59604;52.138;5.446;2022-08-19T02:29:00;101543.63;;;16.24;85.89
71768;BME280;59604;52.138;5.446;2022-08-19T02:31:27;101548.53;;;16.27;85.97
71768;BME280;59604;52.138;5.446;2022-08-19T02:33:55;101552.84;;;16.28;85.97
71768;BME280;59604;52.138;5.446;2022-08-19T02:36:23;101548.94;;;16.24;85.76
71768;BME280;59604;52.138;5.446;2022-08-19T02:38:50;101553.25;;;16.25;85.57
71768;BME280;59604;52.138;5.446;2022-08-19T02:41:24;101559.56;;;16.30;85.59
71768;BME280;59604;52.138;5.446;2022-08-19T02:43:55;101563.66;;;16.26;85.47
71768;BME280;59604;52.138;5.446;2022-08-19T02:46:46;101566.97;;;16.15;86.00
71768;BME280;59604;52.138;5.446;2022-08-19T02:49:13;101564.53;;;16.13;86.32
71768;BME280;59604;52.138;5.446;2022-08-19T02:51:44;101563.50;;;16.14;86.31
71768;BME280;59604;52.138;5.446;2022-08-19T02:54:12;101556.31;;;16.22;86.04
71768;BME280;59604;52.138;5.446;2022-08-19T02:56:40;101559.97;;;16.27;85.70
71768;BME280;59604;52.138;5.446;2022-08-19T02:59:07;101565.69;;;16.31;85.56
71768;BME280;59604;52.138;5.446;2022-08-19T03:01:38;101565.50;;;16.32;85.52
71768;BME280;59604;52.138;5.446;2022-08-19T03:04:07;101571.22;;;16.36;85.49
71768;BME280;59604;52.138;5.446;2022-08-19T03:06:36;101575.91;;;16.34;85.29
71768;BME280;59604;52.138;5.446;2022-08-19T03:09:02;101573.25;;;16.34;85.47
71768;BME280;59604;52.138;5.446;2022-08-19T03:11:30;101567.75;;;16.35;85.59
71768;BME280;59604;52.138;5.446;2022-08-19T03:13:57;101563.44;;;16.34;85.18
71768;BME280;59604;52.138;5.446;2022-08-19T03:16:26;101556.09;;;16.23;85.62
71768;BME280;59604;52.138;5.446;2022-08-19T03:18:58;101554.31;;;16.10;86.15
71768;BME280;59604;52.138;5.446;2022-08-19T03:21:31;101550.44;;;16.00;86.72
71768;BME280;59604;52.138;5.446;2022-08-19T03:24:01;101546.16;;;15.85;86.72
71768;BME280;59604;52.138;5.446;2022-08-19T03:26:28;101546.56;;;15.69;86.69
71768;BME280;59604;52.138;5.446;2022-08-19T03:28:55;101548.38;;;15.62;87.14
71768;BME280;59604;52.138;5.446;2022-08-19T03:31:25;101545.69;;;15.55;87.47
71768;BME280;59604;52.138;5.446;2022-08-19T03:34:16;101540.59;;;15.40;87.90
71768;BME280;59604;52.138;5.446;2022-08-19T03:36:45;101536.91;;;15.28;88.35
71768;BME280;59604;52.138;5.446;2022-08-19T03:39:12;101533.81;;;15.25;88.46
71768;BME280;59604;52.138;5.446;2022-08-19T03:41:41;101541.38;;;15.34;88.28
71768;BME280;59604;52.138;5.446;2022-08-19T03:44:24;101547.94;;;15.45;87.87
71768;BME280;59604;52.138;5.446;2022-08-19T03:46:56;101554.47;;;15.49;87.15
71768;BME280;59604;52.138;5.446;2022-08-19T03:49:26;101550.81;;;15.43;87.15
71768;BME280;59604;52.138;5.446;2022-08-19T03:51:56;101550.56;;;15.38;87.52
71768;BME280;59604;52.138;5.446;2022-08-19T03:54:24;101545.66;;;15.35;87.31
71768;BME280;59604;52.138;5.446;2022-08-19T03:56:52;101538.31;;;15.31;87.78
71768;BME280;59604;52.138;5.446;2022-08-19T03:59:28;101547.91;;;15.25;88.13
71768;BME280;59604;52.138;5.446;2022-08-19T04:01:59;101548.50;;;15.20;88.25
71768;BME280;59604;52.138;5.446;2022-08-19T04:04:26;101542.16;;;15.15;88.37
71768;BME280;59604;52.138;5.446;2022-08-19T04:06:55;101544.38;;;15.05;88.41
71768;BME280;59604;52.138;5.446;2022-08-19T04:09:22;101549.25;;;15.01;88.81
71768;BME280;59604;52.138;5.446;2022-08-19T04:11:51;101539.69;;;15.07;88.85
71768;BME280;59604;52.138;5.446;2022-08-19T04:14:23;101527.84;;;15.09;89.08
71768;BME280;59604;52.138;5.446;2022-08-19T04:16:51;101529.72;;;15.15;88.79
71768;BME280;59604;52.138;5.446;2022-08-19T04:19:19;101516.47;;;15.22;88.88
71768;BME280;59604;52.138;5.446;2022-08-19T04:21:48;101523.41;;;15.23;88.69
71768;BME280;59604;52.138;5.446;2022-08-19T04:24:16;101531.78;;;15.27;88.89
71768;BME280;59604;52.138;5.446;2022-08-19T04:26:43;101533.84;;;15.38;88.60
71768;BME280;59604;52.138;5.446;2022-08-19T04:29:16;101529.75;;;15.42;88.13
71768;BME280;59604;52.138;5.446;2022-08-19T04:31:44;101534.47;;;15.46;88.22
71768;BME280;59604;52.138;5.446;2022-08-19T04:34:14;101530.56;;;15.49;88.03
71768;BME280;59604;52.138;5.446;2022-08-19T04:36:43;101525.69;;;15.53;87.73
71768;BME280;59604;52.138;5.446;2022-08-19T04:39:16;101535.47;;;15.52;87.92
71768;BME280;59604;52.138;5.446;2022-08-19T04:41:43;101527.50;;;15.52;88.07
71768;BME280;59604;52.138;5.446;2022-08-19T04:44:31;101533.03;;;15.57;88.12
71768;BME280;59604;52.138;5.446;2022-08-19T04:46:59;101530.78;;;15.61;88.26
71768;BME280;59604;52.138;5.446;2022-08-19T04:49:26;101525.88;;;15.64;88.09
71768;BME280;59604;52.138;5.446;2022-08-19T04:51:54;101523.66;;;15.68;88.35
71768;BME280;59604;52.138;5.446;2022-08-19T04:54:23;101528.16;;;15.74;87.99
71768;BME280;59604;52.138;5.446;2022-08-19T04:57:06;101523.25;;;15.71;87.86
71768;BME280;59604;52.138;5.446;2022-08-19T04:59:34;101524.88;;;15.72;87.99
71768;BME280;59604;52.138;5.446;2022-08-19T05:02:01;101521.22;;;15.73;88.00
71768;BME280;59604;52.138;5.446;2022-08-19T05:04:27;101528.16;;;15.74;87.76
71768;BME280;59604;52.138;5.446;2022-08-19T05:06:59;101526.53;;;15.73;87.97
71768;BME280;59604;52.138;5.446;2022-08-19T05:09:28;101537.34;;;15.72;87.93
71768;BME280;59604;52.138;5.446;2022-08-19T05:12:15;101538.78;;;15.74;87.79
71768;BME280;59604;52.138;5.446;2022-08-19T05:14:42;101547.16;;;15.78;87.80
71768;BME280;59604;52.138;5.446;2022-08-19T05:17:09;101545.31;;;15.85;87.82
71768;BME280;59604;52.138;5.446;2022-08-19T05:19:53;101540.81;;;15.92;87.83
71768;BME280;59604;52.138;5.446;2022-08-19T05:22:38;101550.03;;;16.03;87.73
71768;BME280;59604;52.138;5.446;2022-08-19T05:25:10;101551.66;;;16.10;87.70
71768;BME280;59604;52.138;5.446;2022-08-19T05:27:40;101546.31;;;16.17;88.24
71768;BME280;59604;52.138;5.446;2022-08-19T05:30:07;101549.56;;;16.19;87.84
71768;BME280;59604;52.138;5.446;2022-08-19T05:32:34;101552.03;;;16.21;87.86
71768;BME280;59604;52.138;5.446;2022-08-19T05:35:01;101549.16;;;16.22;87.81
71768;BME280;59604;52.138;5.446;2022-08-19T05:37:27;101547.53;;;16.28;88.29
71768;BME280;59604;52.138;5.446;2022-08-19T05:39:54;101553.44;;;16.30;87.86
71768;BME280;59604;52.138;5.446;2022-08-19T05:42:21;101554.88;;;16.32;87.85
71768;BME280;59604;52.138;5.446;2022-08-19T05:44:49;101560.78;;;16.34;87.77
71768;BME280;59604;52.138;5.446;2022-08-19T05:47:16;101561.41;;;16.36;87.84
71768;BME280;59604;52.138;5.446;2022-08-19T05:49:45;101566.72;;;16.43;87.91
71768;BME280;59604;52.138;5.446;2022-08-19T05:52:13;101561.56;;;16.48;87.00
71768;BME280;59604;52.138;5.446;2022-08-19T05:54:45;101554.16;;;16.57;87.36
71768;BME280;59604;52.138;5.446;2022-08-19T05:57:17;101546.41;;;16.62;87.42
71768;BME280;59604;52.138;5.446;2022-08-19T05:59:44;101549.66;;;16.64;87.28
71768;BME280;59604;52.138;5.446;2022-08-19T06:02:23;101547.38;;;16.67;87.18
71768;BME280;59604;52.138;5.446;2022-08-19T06:04:51;101557.41;;;16.72;87.35
71768;BME280;59604;52.138;5.446;2022-08-19T06:07:17;101557.63;;;16.77;87.22
71768;BME280;59604;52.138;5.446;2022-08-19T06:09:45;101548.19;;;16.81;87.42
71768;BME280;59604;52.138;5.446;2022-08-19T06:12:31;101563.09;;;16.89;87.60
71768;BME280;59604;52.138;5.446;2022-08-19T06:15:04;101555.25;;;17.01;87.43
71768;BME280;59604;52.138;5.446;2022-08-19T06:17:33;101555.84;;;17.09;87.83
71768;BME280;59604;52.138;5.446;2022-08-19T06:20:03;101559.28;;;17.17;87.75
71768;BME280;59604;52.138;5.446;2022-08-19T06:22:30;101554.28;;;17.27;87.29
71768;BME280;59604;52.138;5.446;2022-08-19T06:24:59;101557.53;;;17.35;87.67
71768;BME280;59604;52.138;5.446;2022-08-19T06:27:26;101549.50;;;17.42;87.83
71768;BME280;59604;52.138;5.446;2022-08-19T06:29:52;101547.59;;;17.49;87.58
71768;BME280;59604;52.138;5.446;2022-08-19T06:32:20;101548.94;;;17.58;87.68
71768;BME280;59604;52.138;5.446;2022-08-19T06:34:46;101552.00;;;17.62;88.09
71768;BME280;59604;52.138;5.446;2022-08-19T06:37:14;101551.16;;;17.68;87.82
71768;BME280;59604;52.138;5.446;2022-08-19T06:39:42;101554.78;;;17.74;88.14
71768;BME280;59604;52.138;5.446;2022-08-19T06:42:10;101558.47;;;17.79;88.13
71768;BME280;59604;52.138;5.446;2022-08-19T06:44:41;101559.22;;;17.86;88.11
71768;BME280;59604;52.138;5.446;2022-08-19T06:47:17;101562.19;;;17.97;86.98
71768;BME280;59604;52.138;5.446;2022-08-19T06:49:57;101547.94;;;18.09;87.82
71768;BME280;59604;52.138;5.446;2022-08-19T06:52:32;101555.56;;;18.24;87.48
71768;BME280;59604;52.138;5.446;2022-08-19T06:55:03;101562.34;;;18.45;88.02
71768;BME280;59604;52.138;5.446;2022-08-19T06:57:32;101562.09;;;18.65;87.99
71768;BME280;59604;52.138;5.446;2022-08-19T06:59:59;101560.81;;;18.74;87.77
71768;BME280;59604;52.138;5.446;2022-08-19T07:02:26;101561.97;;;18.78;88.13
71768;BME280;59604;52.138;5.446;2022-08-19T07:04:53;101560.63;;;18.88;87.75
71768;BME280;59604;52.138;5.446;2022-08-19T07:07:21;101569.59;;;18.93;87.44
71768;BME280;59604;52.138;5.446;2022-08-19T07:09:50;101573.56;;;19.02;87.07
71768;BME280;59604;52.138;5.446;2022-08-19T07:12:27;101569.03;;;19.03;86.73
71768;BME280;59604;52.138;5.446;2022-08-19T07:14:55;101569.84;;;19.03;86.18
71768;BME280;59604;52.138;5.446;2022-08-19T07:17:23;101567.34;;;19.09;86.75
71768;BME280;59604;52.138;5.446;2022-08-19T07:19:50;101573.03;;;19.12;86.44
71768;BME280;59604;52.138;5.446;2022-08-19T07:22:19;101573.19;;;19.29;86.47
71768;BME280;59604;52.138;5.446;2022-08-19T07:24:49;101575.09;;;19.40;85.83
71768;BME280;59604;52.138;5.446;2022-08-19T07:27:16;101565.72;;;19.49;86.04
71768;BME280;59604;52.138;5.446;2022-08-19T07:29:49;101576.06;;;19.58;84.40
71768;BME280;59604;52.138;5.446;2022-08-19T07:32:23;101573.19;;;19.59;84.28
71768;BME280;59604;52.138;5.446;2022-08-19T07:34:52;101571.88;;;19.62;85.02
71768;BME280;59604;52.138;5.446;2022-08-19T07:37:18;101574.25;;;19.70;84.40
71768;BME280;59604;52.138;5.446;2022-08-19T07:39:45;101574.84;;;19.72;84.35
71768;BME280;59604;52.138;5.446;2022-08-19T07:42:11;101571.13;;;19.73;83.51
71768;BME280;59604;52.138;5.446;2022-08-19T07:44:39;101575.09;;;19.70;82.19
71768;BME280;59604;52.138;5.446;2022-08-19T07:47:06;101574.84;;;19.72;83.61
71768;BME280;59604;52.138;5.446;2022-08-19T07:49:53;101570.81;;;19.81;83.74
71768;BME280;59604;52.138;5.446;2022-08-19T07:52:19;101573.13;;;19.89;83.28
71768;BME280;59604;52.138;5.446;2022-08-19T07:54:46;101579.19;;;19.96;82.80
71768;BME280;59604;52.138;5.446;2022-08-19T07:57:12;101580.34;;;20.00;83.12
71768;BME280;59604;52.138;5.446;2022-08-19T07:59:39;101582.06;;;20.07;81.82
71768;BME280;59604;52.138;5.446;2022-08-19T08:02:07;101583.00;;;20.12;80.96
71768;BME280;59604;52.138;5.446;2022-08-19T08:04:34;101593.34;;;20.20;82.12
71768;BME280;59604;52.138;5.446;2022-08-19T08:07:19;101599.75;;;20.31;80.93
71768;BME280;59604;52.138;5.446;2022-08-19T08:10:11;101600.09;;;20.35;80.14
71768;BME280;59604;52.138;5.446;2022-08-19T08:12:47;101604.97;;;20.38;79.84
71768;BME280;59604;52.138;5.446;2022-08-19T08:15:34;101606.22;;;20.47;79.03
71768;BME280;59604;52.138;5.446;2022-08-19T08:18:07;101616.97;;;20.59;78.15
71768;BME280;59604;52.138;5.446;2022-08-19T08:20:34;101614.97;;;20.78;77.56
71768;BME280;59604;52.138;5.446;2022-08-19T08:23:01;101607.72;;;20.78;76.89
71768;BME280;59604;52.138;5.446;2022-08-19T08:25:46;101614.84;;;20.72;77.79
71768;BME280;59604;52.138;5.446;2022-08-19T08:28:16;101622.41;;;20.75;77.41
71768;BME280;59604;52.138;5.446;2022-08-19T08:30:43;101617.25;;;20.86;76.86
71768;BME280;59604;52.138;5.446;2022-08-19T08:33:13;101621.91;;;20.90;76.63
71768;BME280;59604;52.138;5.446;2022-08-19T08:35:40;101630.19;;;20.89;77.25
71768;BME280;59604;52.138;5.446;2022-08-19T08:38:12;101646.50;;;20.75;77.90
71768;BME280;59604;52.138;5.446;2022-08-19T08:40:47;101640.81;;;20.72;77.87
71768;BME280;59604;52.138;5.446;2022-08-19T08:43:33;101645.69;;;20.75;78.22
71768;BME280;59604;52.138;5.446;2022-08-19T08:46:03;101640.22;;;20.82;78.14
71768;BME280;59604;52.138;5.446;2022-08-19T08:48:40;101640.38;;;21.04;77.23
71768;BME280;59604;52.138;5.446;2022-08-19T08:51:46;101650.53;;;21.30;75.87
71768;BME280;59604;52.138;5.446;2022-08-19T08:54:33;101636.34;;;21.58;74.70
71768;BME280;59604;52.138;5.446;2022-08-19T08:57:04;101634.25;;;21.77;73.03
71768;BME280;59604;52.138;5.446;2022-08-19T08:59:37;101642.13;;;21.84;74.16
71768;BME280;59604;52.138;5.446;2022-08-19T09:02:05;101634.56;;;21.98;73.03
71768;BME280;59604;52.138;5.446;2022-08-19T09:04:34;101630.59;;;22.00;73.62
71768;BME280;59604;52.138;5.446;2022-08-19T09:10:20;101633.25;;;22.34;72.58
71768;BME280;59604;52.138;5.446;2022-08-19T09:15:48;101621.81;;;22.22;72.20
71768;BME280;59604;52.138;5.446;2022-08-19T09:18:17;101637.81;;;22.16;72.21
71768;BME280;59604;52.138;5.446;2022-08-19T09:20:45;101631.97;;;22.19;71.43
71768;BME280;59604;52.138;5.446;2022-08-19T09:23:13;101638.66;;;22.17;72.12
71768;BME280;59604;52.138;5.446;2022-08-19T09:25:41;101629.13;;;22.26;71.33
71768;BME280;59604;52.138;5.446;2022-08-19T09:28:07;101637.00;;;22.33;71.45
71768;BME280;59604;52.138;5.446;2022-08-19T09:30:48;101633.03;;;22.35;69.71
71768;BME280;59604;52.138;5.446;2022-08-19T09:33:14;101626.16;;;22.45;69.67
71768;BME280;59604;52.138;5.446;2022-08-19T09:35:42;101629.00;;;22.55;70.15
71768;BME280;59604;52.138;5.446;2022-08-19T09:38:18;101636.13;;;22.66;69.23
71768;BME280;59604;52.138;5.446;2022-08-19T09:40:44;101628.94;;;22.94;67.88
71768;BME280;59604;52.138;5.446;2022-08-19T09:43:11;101638.63;;;23.17;67.67
71768;BME280;59604;52.138;5.446;2022-08-19T09:45:38;101633.41;;;23.32;67.35
71768;BME280;59604;52.138;5.446;2022-08-19T09:48:05;101628.22;;;23.52;67.53
71768;BME280;59604;52.138;5.446;2022-08-19T09:50:32;101630.31;;;23.72;65.15
71768;BME280;59604;52.138;5.446;2022-08-19T09:53:00;101630.56;;;24.03;64.73
71768;BME280;59604;52.138;5.446;2022-08-19T09:55:26;101633.69;;;24.27;65.00
71768;BME280;59604;52.138;5.446;2022-08-19T09:58:01;101627.34;;;24.43;63.11
71768;BME280;59604;52.138;5.446;2022-08-19T10:00:29;101625.78;;;24.52;64.30
71768;BME280;59604;52.138;5.446;2022-08-19T10:02:57;101629.00;;;24.59;63.64
71768;BME280;59604;52.138;5.446;2022-08-19T10:05:23;101630.19;;;24.31;62.13
71768;BME280;59604;52.138;5.446;2022-08-19T10:08:09;101633.31;;;24.13;64.22
71768;BME280;59604;52.138;5.446;2022-08-19T10:10:40;101622.00;;;24.11;63.76
71768;BME280;59604;52.138;5.446;2022-08-19T10:13:13;101635.72;;;24.52;62.33
71768;BME280;59604;52.138;5.446;2022-08-19T10:15:40;101634.28;;;24.87;59.81
71768;BME280;59604;52.138;5.446;2022-08-19T10:18:13;101632.41;;;24.97;59.26
71768;BME280;59604;52.138;5.446;2022-08-19T10:20:39;101635.19;;;25.13;60.68
71768;BME280;59604;52.138;5.446;2022-08-19T10:23:09;101634.41;;;25.22;60.17
71768;BME280;59604;52.138;5.446;2022-08-19T10:25:35;101627.41;;;25.26;59.29
71768;BME280;59604;52.138;5.446;2022-08-19T10:28:04;101630.56;;;25.08;59.32
71768;BME280;59604;52.138;5.446;2022-08-19T10:30:36;101634.28;;;24.87;59.65
71768;BME280;59604;52.138;5.446;2022-08-19T10:33:03;101630.44;;;24.67;59.75
71768;BME280;59604;52.138;5.446;2022-08-19T10:35:36;101626.19;;;24.92;60.13
71768;BME280;59604;52.138;5.446;2022-08-19T10:38:23;101633.59;;;25.32;59.88
71768;BME280;59604;52.138;5.446;2022-08-19T10:41:05;101623.91;;;25.31;58.78
71768;BME280;59604;52.138;5.446;2022-08-19T10:43:32;101628.75;;;25.34;60.47
71768;BME280;59604;52.138;5.446;2022-08-19T10:46:02;101625.53;;;25.52;58.41
71768;BME280;59604;52.138;5.446;2022-08-19T10:48:28;101625.00;;;25.45;58.06
71768;BME280;59604;52.138;5.446;2022-08-19T10:50:57;101617.19;;;25.49;59.57
71768;BME280;59604;52.138;5.446;2022-08-19T10:53:48;101624.47;;;25.64;58.71
71768;BME280;59604;52.138;5.446;2022-08-19T10:56:14;101616.91;;;25.61;59.11
71768;BME280;59604;52.138;5.446;2022-08-19T10:58:59;101610.97;;;25.69;58.17
71768;BME280;59604;52.138;5.446;2022-08-19T11:01:28;101611.81;;;25.80;58.32
71768;BME280;59604;52.138;5.446;2022-08-19T11:03:57;101612.31;;;25.71;57.53
71768;BME280;59604;52.138;5.446;2022-08-19T11:06:24;101606.94;;;25.41;59.45
71768;BME280;59604;52.138;5.446;2022-08-19T11:08:54;101611.47;;;25.40;58.66
71768;BME280;59604;52.138;5.446;2022-08-19T11:11:21;101610.69;;;25.75;58.68
71768;BME280;59604;52.138;5.446;2022-08-19T11:13:48;101609.59;;;25.76;58.88
71768;BME280;59604;52.138;5.446;2022-08-19T11:16:20;101615.03;;;25.71;58.76
71768;BME280;59604;52.138;5.446;2022-08-19T11:18:53;101605.03;;;25.77;58.74
71768;BME280;59604;52.138;5.446;2022-08-19T11:21:26;101596.13;;;26.02;58.58
71768;BME280;59604;52.138;5.446;2022-08-19T11:23:56;101609.88;;;26.16;59.94
71768;BME280;59604;52.138;5.446;2022-08-19T11:26:23;101592.22;;;26.39;57.60
71768;BME280;59604;52.138;5.446;2022-08-19T11:28:51;101598.44;;;26.49;56.42
71768;BME280;59604;52.138;5.446;2022-08-19T11:31:23;101597.31;;;26.61;57.80
71768;BME280;59604;52.138;5.446;2022-08-19T11:33:57;101588.38;;;26.70;57.82
71768;BME280;59604;52.138;5.446;2022-08-19T11:36:23;101594.28;;;26.78;58.03
71768;BME280;59604;52.138;5.446;2022-08-19T11:38:50;101593.81;;;26.60;58.36
71768;BME280;59604;52.138;5.446;2022-08-19T11:41:19;101592.84;;;26.20;59.28
71768;BME280;59604;52.138;5.446;2022-08-19T11:43:46;101582.44;;;26.63;59.92
71768;BME280;59604;52.138;5.446;2022-08-19T11:46:14;101583.25;;;27.13;57.72
71768;BME280;59604;52.138;5.446;2022-08-19T11:48:41;101582.09;;;27.25;56.06
71768;BME280;59604;52.138;5.446;2022-08-19T11:51:10;101577.06;;;27.03;57.38
71768;BME280;59604;52.138;5.446;2022-08-19T11:53:37;101583.47;;;26.72;57.96
71768;BME280;59604;52.138;5.446;2022-08-19T11:56:07;101591.47;;;26.93;57.95
71768;BME280;59604;52.138;5.446;2022-08-19T11:58:34;101588.78;;;26.93;58.58
71768;BME280;59604;52.138;5.446;2022-08-19T12:01:06;101592.28;;;26.93;58.46
71768;BME280;59604;52.138;5.446;2022-08-19T12:03:33;101587.97;;;26.92;58.20
71768;BME280;59604;52.138;5.446;2022-08-19T12:06:08;101581.94;;;27.06;57.75
71768;BME280;59604;52.138;5.446;2022-08-19T12:08:35;101589.78;;;27.07;57.90
71768;BME280;59604;52.138;5.446;2022-08-19T12:11:02;101592.66;;;27.26;57.82
71768;BME280;59604;52.138;5.446;2022-08-19T12:13:30;101590.56;;;27.18;56.35
71768;BME280;59604;52.138;5.446;2022-08-19T12:15:57;101588.25;;;26.91;57.04
71768;BME280;59604;52.138;5.446;2022-08-19T12:18:24;101597.56;;;26.64;58.49
71768;BME280;59604;52.138;5.446;2022-08-19T12:20:52;101594.34;;;26.57;59.09
71768;BME280;59604;52.138;5.446;2022-08-19T12:23:20;101602.22;;;26.43;59.38
71768;BME280;59604;52.138;5.446;2022-08-19T12:25:48;101600.16;;;26.15;59.86
71768;BME280;59604;52.138;5.446;2022-08-19T12:28:23;101593.72;;;25.85;60.49
71768;BME280;59604;52.138;5.446;2022-08-19T12:30:51;101601.00;;;25.64;60.67
71768;BME280;59604;52.138;5.446;2022-08-19T12:33:18;101604.22;;;25.51;61.68
71768;BME280;59604;52.138;5.446;2022-08-19T12:35:45;101594.78;;;25.43;61.10
71768;BME280;59604;52.138;5.446;2022-08-19T12:38:13;101604.47;;;25.39;61.48
71768;BME280;59604;52.138;5.446;2022-08-19T12:40:41;101597.72;;;25.37;62.21
71768;BME280;59604;52.138;5.446;2022-08-19T12:43:08;101604.22;;;25.36;62.18
71768;BME280;59604;52.138;5.446;2022-08-19T12:45:34;101599.34;;;25.22;62.17
71768;BME280;59604;52.138;5.446;2022-08-19T12:48:03;101597.94;;;25.10;62.43
71768;BME280;59604;52.138;5.446;2022-08-19T12:50:50;101597.66;;;25.06;62.93
71768;BME280;59604;52.138;5.446;2022-08-19T12:53:17;101602.25;;;25.05;62.63
71768;BME280;59604;52.138;5.446;2022-08-19T12:55:43;101596.91;;;25.16;62.98
71768;BME280;59604;52.138;5.446;2022-08-19T12:58:10;101599.63;;;25.36;63.53
71768;BME280;59604;52.138;5.446;2022-08-19T13:00:36;101595.59;;;25.54;63.44
71768;BME280;59604;52.138;5.446;2022-08-19T13:03:03;101593.72;;;25.85;62.06
71768;BME280;59604;52.138;5.446;2022-08-19T13:05:31;101595.31;;;25.81;62.95
71768;BME280;59604;52.138;5.446;2022-08-19T13:08:00;101589.69;;;25.83;61.87
71768;BME280;59604;52.138;5.446;2022-08-19T13:10:30;101580.75;;;25.87;61.68
71768;BME280;59604;52.138;5.446;2022-08-19T13:13:06;101593.19;;;25.83;61.47
71768;BME280;59604;52.138;5.446;2022-08-19T13:15:34;101596.13;;;25.66;62.46